Time,TemperatureF,DewpointF,PressureIn,WindDirection,WindDirectionDegrees,WindSpeedMPH,WindSpeedGustMPH,Humidity,HourlyPrecipIn,Conditions,Clouds,dailyrainin,SoftwareType,DateUTC
2013-06-24 00:00:00,90.0,84.0,30.05,SSE,160,9.0,-999.0,81,-99.99,,,-99.99,,2013-06-24 00:00:00,
2013-06-24 02:21:00,90.0,83.0,30.08,SSE,150,9.0,-999.0,79,-99.99,,,-99.99,,2013-06-24 02:21:00,
2013-06-24 02:33:00,90.0,83.0,30.08,SSE,150,9.0,-999.0,79,-99.99,,,-99.99,,2013-06-24 02:33:00,
2013-06-24 02:42:00,90.0,83.0,30.08,SSE,150,9.0,-999.0,79,-99.99,,,-99.99,,2013-06-24 02:42:00,
2013-06-24 02:52:00,90.0,83.0,30.08,SSE,150,9.0,-999.0,79,-99.99,,,-99.99,,2013-06-24 02:52:00,
2013-06-24 04:00:00,90.0,81.0,30.09,South,170,15.0,-999.0,73,-99.99,,,-99.99,,2013-06-24 04:00:00,
2013-06-24 04:22:00,90.0,81.0,30.09,South,170,15.0,-999.0,73,-99.99,,,-99.99,,2013-06-24 04:22:00,
2013-06-24 04:33:00,90.0,81.0,30.09,South,170,15.0,-999.0,73,-99.99,,,-99.99,,2013-06-24 04:33:00,
2013-06-24 04:43:00,90.0,81.0,30.09,South,170,15.0,-999.0,73,-99.99,,,-99.99,,2013-06-24 04:43:00,
2013-06-24 04:52:00,90.0,81.0,30.09,South,170,15.0,-999.0,73,-99.99,,,-99.99,,2013-06-24 04:52:00,
2013-06-24 05:32:00,91.0,82.0,30.09,SSE,150,15.0,-999.0,75,-99.99,,,-99.99,,2013-06-24 05:32:00,
2013-06-24 05:42:00,91.0,82.0,30.09,SSE,150,15.0,-999.0,75,-99.99,,,-99.99,,2013-06-24 05:42:00,
2013-06-24 05:52:00,91.0,82.0,30.09,SSE,150,15.0,-999.0,75,-99.99,,,-99.99,,2013-06-24 05:52:00,
2013-06-24 07:00:00,90.0,81.0,30.08,South,170,12.0,-999.0,74,-99.99,,,-99.99,,2013-06-24 07:00:00,
2013-06-24 07:24:00,90.0,81.0,30.08,South,170,12.0,-999.0,74,-99.99,,,-99.99,,2013-06-24 07:24:00,
2013-06-24 07:33:00,90.0,81.0,30.08,South,170,12.0,-999.0,74,-99.99,,,-99.99,,2013-06-24 07:33:00,
2013-06-24 07:43:00,90.0,81.0,30.08,South,170,12.0,-999.0,74,-99.99,,,-99.99,,2013-06-24 07:43:00,
2013-06-24 07:52:00,90.0,81.0,30.08,South,170,12.0,-999.0,74,-99.99,,,-99.99,,2013-06-24 07:52:00,
2013-06-24 09:22:00,90.0,82.0,30.09,SE,140,10.0,-999.0,77,-99.99,,,-99.99,,2013-06-24 09:22:00,
2013-06-24 09:33:00,90.0,82.0,30.09,SE,140,10.0,-999.0,77,-99.99,,,-99.99,,2013-06-24 09:33:00,
2013-06-24 09:43:00,90.0,82.0,30.09,SE,140,10.0,-999.0,77,-99.99,,,-99.99,,2013-06-24 09:43:00,
2013-06-24 09:53:00,90.0,82.0,30.09,SE,140,10.0,-999.0,77,-99.99,,,-99.99,,2013-06-24 09:53:00,
2013-06-24 15:00:00,92.0,83.0,30.14,SSE,160,8.0,-999.0,76,-99.99,,,-99.99,,2013-06-24 15:00:00,
2013-06-24 15:23:00,92.0,83.0,30.14,SSE,160,8.0,-999.0,76,-99.99,,,-99.99,,2013-06-24 15:23:00,
2013-06-24 15:33:00,92.0,83.0,30.14,SSE,160,8.0,-999.0,76,-99.99,,,-99.99,,2013-06-24 15:33:00,
2013-06-24 16:00:00,91.0,83.0,30.15,SSE,150,9.0,-999.0,77,-99.99,,,-99.99,,2013-06-24 16:00:00,
2013-06-24 16:22:00,91.0,83.0,30.15,SSE,150,9.0,-999.0,77,-99.99,,,-99.99,,2013-06-24 16:22:00,
2013-06-24 16:33:00,91.0,83.0,30.15,SSE,150,9.0,-999.0,77,-99.99,,,-99.99,,2013-06-24 16:33:00,
2013-06-24 16:42:00,91.0,83.0,30.15,SSE,150,9.0,-999.0,77,-99.99,,,-99.99,,2013-06-24 16:42:00,
2013-06-24 16:53:00,91.0,83.0,30.15,SSE,150,9.0,-999.0,77,-99.99,,,-99.99,,2013-06-24 16:53:00,
2013-06-24 17:00:00,91.0,83.0,30.14,SSE,160,6.0,-999.0,78,-99.99,,,-99.99,,2013-06-24 17:00:00,
2013-06-24 17:21:00,91.0,83.0,30.14,SSE,160,6.0,-999.0,78,-99.99,,,-99.99,,2013-06-24 17:21:00,
2013-06-24 17:54:00,91.0,83.0,30.14,SSE,160,6.0,-999.0,78,-99.99,,,-99.99,,2013-06-24 17:54:00,
2013-06-24 19:00:00,91.0,83.0,30.12,SE,130,9.0,-999.0,77,-99.99,,,-99.99,,2013-06-24 19:00:00,
2013-06-24 19:33:00,91.0,83.0,30.12,SE,130,9.0,-999.0,77,-99.99,,,-99.99,,2013-06-24 19:33:00,
2013-06-24 19:42:00,91.0,83.0,30.12,SE,130,9.0,-999.0,77,-99.99,,,-99.99,,2013-06-24 19:42:00,
2013-06-24 19:53:00,91.0,83.0,30.12,SE,130,9.0,-999.0,77,-99.99,,,-99.99,,2013-06-24 19:53:00,
2013-06-24 21:00:00,91.0,83.0,30.10,SE,130,9.0,-999.0,77,-99.99,,,-99.99,,2013-06-24 21:00:00,
2013-06-24 21:33:00,91.0,83.0,30.10,SE,130,9.0,-999.0,77,-99.99,,,-99.99,,2013-06-24 21:33:00,
2013-06-24 21:43:00,91.0,83.0,30.10,SE,130,9.0,-999.0,77,-99.99,,,-99.99,,2013-06-24 21:43:00,
2013-06-24 21:52:00,91.0,83.0,30.10,SE,130,9.0,-999.0,77,-99.99,,,-99.99,,2013-06-24 21:52:00,
2013-06-24 22:00:00,91.0,82.0,30.08,SE,140,9.0,-999.0,75,-99.99,,,-99.99,,2013-06-24 22:00:00,
2013-06-24 22:21:00,91.0,82.0,30.08,SE,140,9.0,-999.0,75,-99.99,,,-99.99,,2013-06-24 22:21:00,
2013-06-24 22:43:00,91.0,82.0,30.08,SE,140,9.0,-999.0,75,-99.99,,,-99.99,,2013-06-24 22:43:00,
2013-06-24 22:53:00,91.0,82.0,30.08,SE,140,9.0,-999.0,75,-99.99,,,-99.99,,2013-06-24 22:53:00,
2013-06-24 23:00:00,91.0,82.0,30.08,SE,140,8.0,-999.0,75,-99.99,,,-99.99,,2013-06-24 23:00:00,
2013-06-24 23:22:00,91.0,82.0,30.08,SE,140,8.0,-999.0,75,-99.99,,,-99.99,,2013-06-24 23:22:00,
2013-06-24 23:33:00,91.0,82.0,30.08,SE,140,8.0,-999.0,75,-99.99,,,-99.99,,2013-06-24 23:33:00,
2013-06-24 23:43:00,91.0,82.0,30.08,SE,140,8.0,-999.0,75,-99.99,,,-99.99,,2013-06-24 23:43:00,
2013-06-24 23:52:00,91.0,82.0,30.08,SE,140,8.0,-999.0,75,-99.99,,,-99.99,,2013-06-24 23:52:00,